»·PEaware :: N445SN KSAC-KSJC

N445SN :: KSAC-KSJC

FLIGHT INFORMATION

Flight Status: Arrived
Operator: Privately registered:
United States
More flights under this callsign
Pilot: Jeremy W. (20490)
Aircraft: CESSNA 172 SKYHAWK
(C172)
More flights by this aircraft type
Origin: KSAC Sacramento Executive
United States
Destination: KSJC Mineta San Jose Intl
United States
More flights between these airports :: More routes between these airports
Route: +++BORED KLIDE
File this flight plan on PilotEdge
Remarks: New to network
Altitude:
(Current/Filed)
8,000ft
Speed:
(Current/Filed)
124kts
Departed: 18-Sep-18 09:38 AM
Arrived: 18-Sep-18 10:32 AM
Distance/Time
Traveled:
72nm/0:54
Distance/Time
To Go:
Arrived

Flight Plot

Page will automatically refresh every two minutes.

Flight plan parsing failed; only flown route is shown


Map Options




Map Legend


Flown Route
Filed Route
Departure Airport
Arrival Airport
Navaid (VOR, NDB)
Fix

Horizontal Profiles

Position Reports

Time Latitude Longitude Heading Altitude Ground
Speed
18-Sep-18 09:11 38.519950 -121.493686 235 23ft 0kts
18-Sep-18 09:12 38.519950 -121.493686 235 23ft 0kts
18-Sep-18 09:13 38.519950 -121.493686 235 23ft 0kts
18-Sep-18 09:14 38.519950 -121.493686 235 23ft 0kts
18-Sep-18 09:15 38.519950 -121.493686 235 23ft 0kts
18-Sep-18 09:16 38.519950 -121.493686 235 23ft 0kts
18-Sep-18 09:17 38.519950 -121.493686 235 23ft 0kts
18-Sep-18 09:18 38.519950 -121.493686 235 23ft 0kts
18-Sep-18 09:19 38.519950 -121.493686 235 23ft 0kts
18-Sep-18 09:20 38.519950 -121.493686 235 23ft 0kts
18-Sep-18 09:21 38.519950 -121.493686 235 23ft 0kts
18-Sep-18 09:22 38.519950 -121.493686 235 23ft 0kts
18-Sep-18 09:23 38.519950 -121.493686 235 23ft 0kts
18-Sep-18 09:24 38.519950 -121.493686 235 23ft 0kts
18-Sep-18 09:25 38.519950 -121.493686 235 23ft 0kts
18-Sep-18 09:26 38.519950 -121.493686 235 23ft 0kts
18-Sep-18 09:27 38.519950 -121.493686 235 23ft 0kts
18-Sep-18 09:28 38.519950 -121.493686 235 23ft 0kts
18-Sep-18 09:29 38.519950 -121.493686 235 23ft 0kts
18-Sep-18 09:30 38.519950 -121.493686 235 23ft 0kts
18-Sep-18 09:31 38.519950 -121.493686 235 23ft 0kts
18-Sep-18 09:32 38.519950 -121.493686 235 23ft 0kts
18-Sep-18 09:33 38.519950 -121.493686 235 23ft 0kts
18-Sep-18 09:34 38.519950 -121.493686 235 23ft 0kts
18-Sep-18 09:35 38.519950 -121.493686 235 23ft 0kts
18-Sep-18 09:36 38.519950 -121.493686 235 23ft 0kts
18-Sep-18 09:37 38.519572 -121.493049 101 23ft 15kts
18-Sep-18 09:38 38.519160 -121.490329 100 23ft 0kts
18-Sep-18 09:39 38.518938 -121.489491 155 23ft 14kts
18-Sep-18 09:40 38.499055 -121.494209 163 465ft 103kts
18-Sep-18 09:41 38.470625 -121.483383 163 1180ft 108kts
18-Sep-18 09:42 38.442786 -121.472804 161 1972ft 99kts
18-Sep-18 09:43 38.420930 -121.464384 162 2611ft 101kts
18-Sep-18 09:44 38.389036 -121.453237 164 3461ft 100kts
18-Sep-18 09:45 38.364110 -121.444799 166 4332ft 87kts
18-Sep-18 09:46 38.345362 -121.438386 164 5004ft 86kts
18-Sep-18 09:47 38.321647 -121.430271 162 5715ft 90kts
18-Sep-18 09:48 38.288445 -121.424112 175 5977ft 124kts
18-Sep-18 09:49 38.259630 -121.421399 175 5971ft 122kts
18-Sep-18 09:50 38.226126 -121.418192 175 5970ft 120kts
18-Sep-18 09:51 38.192884 -121.414869 175 5957ft 124kts
18-Sep-18 09:52 38.158939 -121.409139 175 5949ft 119kts
18-Sep-18 09:53 38.121465 -121.402663 175 5950ft 115kts
18-Sep-18 09:54 38.095011 -121.398560 175 5976ft 116kts
18-Sep-18 09:55 38.062422 -121.395116 175 5983ft 120kts
18-Sep-18 09:56 38.029041 -121.391579 176 5975ft 120kts
18-Sep-18 09:57 37.995926 -121.388086 175 5977ft 119kts
18-Sep-18 09:58 37.962720 -121.384570 174 5975ft 120kts
18-Sep-18 09:59 37.929584 -121.380903 174 5978ft 120kts
18-Sep-18 10:00 37.896814 -121.377203 174 5978ft 120kts
18-Sep-18 10:01 37.863683 -121.373412 174 5997ft 119kts
18-Sep-18 10:02 37.830535 -121.369973 175 5996ft 120kts
18-Sep-18 10:03 37.797154 -121.366835 175 5994ft 120kts
18-Sep-18 10:04 37.763955 -121.363534 176 6004ft 123kts
18-Sep-18 10:05 37.729505 -121.358822 175 5995ft 125kts
18-Sep-18 10:06 37.694851 -121.353916 174 6003ft 125kts
18-Sep-18 10:07 37.660168 -121.348902 175 5989ft 126kts
18-Sep-18 10:08 37.625305 -121.343861 174 5994ft 126kts
18-Sep-18 10:09 37.590517 -121.338856 175 5972ft 127kts
18-Sep-18 10:10 37.555279 -121.334433 174 5967ft 127kts
18-Sep-18 10:11 37.519946 -121.329877 175 5968ft 127kts
18-Sep-18 10:12 37.484604 -121.325260 175 5965ft 128kts
18-Sep-18 10:13 37.449276 -121.320646 175 5966ft 127kts
18-Sep-18 10:14 37.414497 -121.320127 218 5970ft 125kts
18-Sep-18 10:15 37.389234 -121.349486 231 5969ft 122kts
18-Sep-18 10:16 37.367020 -121.381297 234 5996ft 121kts
18-Sep-18 10:17 37.347338 -121.415032 237 6055ft 120kts
18-Sep-18 10:18 37.329969 -121.451239 234 6041ft 121kts
18-Sep-18 10:19 37.310854 -121.486479 235 6037ft 122kts
18-Sep-18 10:20 37.292063 -121.521849 235 6040ft 121kts
18-Sep-18 10:21 37.273512 -121.557216 235 6044ft 121kts
18-Sep-18 10:22 37.251775 -121.598554 235 6041ft 122kts
18-Sep-18 10:23 37.235932 -121.627429 235 6041ft 120kts
18-Sep-18 10:24 37.216863 -121.661831 234 6041ft 120kts
18-Sep-18 10:25 37.197196 -121.697083 234 5296ft 126kts
18-Sep-18 10:26 37.188691 -121.737022 283 4391ft 126kts
18-Sep-18 10:27 37.196451 -121.780012 280 3446ft 128kts
18-Sep-18 10:28 37.224714 -121.801038 339 3089ft 119kts
18-Sep-18 10:29 37.255175 -121.817202 309 3080ft 122kts
18-Sep-18 10:30 37.281777 -121.844347 319 2510ft 130kts
18-Sep-18 10:31 37.309135 -121.873116 323 1570ft 124kts
18-Sep-18 10:32 37.334087 -121.898638 317 589ft 121kts
18-Sep-18 10:33 37.356845 -121.923425 323 83ft 90kts
18-Sep-18 10:34 37.362021 -121.931018 232 49ft 11kts
18-Sep-18 10:35 37.359468 -121.931061 207 51ft 13kts
18-Sep-18 10:36 37.358845 -121.931587 232 52ft 0kts

Navigation Log

Ident Type
Flight plan parsing failed, navigation log unavailable